sensor_id;sensor_type;location;lat;lon;timestamp;temperature;humidity
62998;DHT22;55949;52.590;7.330;2024-01-30T00:00:45;9.10;99.90
62998;DHT22;55949;52.590;7.330;2024-01-30T00:01:46;8.80;99.90
62998;DHT22;55949;52.590;7.330;2024-01-30T00:02:47;8.50;99.90
62998;DHT22;55949;52.590;7.330;2024-01-30T00:03:48;8.30;99.90
62998;DHT22;55949;52.590;7.330;2024-01-30T00:04:48;8.30;99.90
62998;DHT22;55949;52.590;7.330;2024-01-30T00:05:49;8.60;99.90
62998;DHT22;55949;52.590;7.330;2024-01-30T00:06:51;8.60;99.90
62998;DHT22;55949;52.590;7.330;2024-01-30T00:07:53;8.70;99.90
62998;DHT22;55949;52.590;7.330;2024-01-30T00:08:53;8.80;99.90
62998;DHT22;55949;52.590;7.330;2024-01-30T00:09:54;8.70;99.90
62998;DHT22;55949;52.590;7.330;2024-01-30T00:10:55;8.60;99.90
62998;DHT22;55949;52.590;7.330;2024-01-30T00:11:56;8.40;99.90
62998;DHT22;55949;52.590;7.330;2024-01-30T00:12:57;8.30;99.90
62998;DHT22;55949;52.590;7.330;2024-01-30T00:13:57;8.20;99.90
62998;DHT22;55949;52.590;7.330;2024-01-30T00:14:58;8.20;99.90
62998;DHT22;55949;52.590;7.330;2024-01-30T00:15:59;8.10;99.90
62998;DHT22;55949;52.590;7.330;2024-01-30T00:17:00;8.10;99.90
62998;DHT22;55949;52.590;7.330;2024-01-30T00:18:00;8.10;99.90
62998;DHT22;55949;52.590;7.330;2024-01-30T00:19:01;7.90;99.90
62998;DHT22;55949;52.590;7.330;2024-01-30T00:20:03;7.80;99.90
62998;DHT22;55949;52.590;7.330;2024-01-30T00:21:06;7.90;99.90
62998;DHT22;55949;52.590;7.330;2024-01-30T00:22:06;7.90;99.90
62998;DHT22;55949;52.590;7.330;2024-01-30T00:23:08;7.80;99.90
62998;DHT22;55949;52.590;7.330;2024-01-30T00:24:09;7.70;99.90
62998;DHT22;55949;52.590;7.330;2024-01-30T00:25:09;7.90;99.90
62998;DHT22;55949;52.590;7.330;2024-01-30T00:26:10;8.10;99.90
62998;DHT22;55949;52.590;7.330;2024-01-30T00:27:11;8.10;99.90
62998;DHT22;55949;52.590;7.330;2024-01-30T00:28:12;7.90;99.90
62998;DHT22;55949;52.590;7.330;2024-01-30T00:29:13;7.80;99.90
62998;DHT22;55949;52.590;7.330;2024-01-30T00:30:20;7.70;99.90
62998;DHT22;55949;52.590;7.330;2024-01-30T00:31:21;7.60;99.90
62998;DHT22;55949;52.590;7.330;2024-01-30T00:32:22;7.80;99.90
62998;DHT22;55949;52.590;7.330;2024-01-30T00:33:23;8.10;99.90
62998;DHT22;55949;52.590;7.330;2024-01-30T00:34:24;8.30;99.90
62998;DHT22;55949;52.590;7.330;2024-01-30T00:35:25;8.40;99.90
62998;DHT22;55949;52.590;7.330;2024-01-30T00:36:26;8.30;99.90
62998;DHT22;55949;52.590;7.330;2024-01-30T00:37:30;8.50;99.90
62998;DHT22;55949;52.590;7.330;2024-01-30T00:38:32;8.40;99.90
62998;DHT22;55949;52.590;7.330;2024-01-30T00:39:33;8.40;99.90
62998;DHT22;55949;52.590;7.330;2024-01-30T00:40:33;8.30;99.90
62998;DHT22;55949;52.590;7.330;2024-01-30T00:41:35;8.20;99.90
62998;DHT22;55949;52.590;7.330;2024-01-30T00:42:35;8.10;99.90
62998;DHT22;55949;52.590;7.330;2024-01-30T00:43:36;7.90;99.90
62998;DHT22;55949;52.590;7.330;2024-01-30T00:44:37;7.80;99.90
62998;DHT22;55949;52.590;7.330;2024-01-30T00:45:39;7.70;99.90
62998;DHT22;55949;52.590;7.330;2024-01-30T00:46:40;7.70;99.90
62998;DHT22;55949;52.590;7.330;2024-01-30T00:47:41;7.70;99.90
62998;DHT22;55949;52.590;7.330;2024-01-30T00:48:42;7.60;99.90
62998;DHT22;55949;52.590;7.330;2024-01-30T00:49:43;7.50;99.90
62998;DHT22;55949;52.590;7.330;2024-01-30T00:50:44;7.60;99.90
62998;DHT22;55949;52.590;7.330;2024-01-30T00:51:44;7.70;99.90
62998;DHT22;55949;52.590;7.330;2024-01-30T00:52:45;7.90;99.90
62998;DHT22;55949;52.590;7.330;2024-01-30T00:53:46;7.70;99.90
62998;DHT22;55949;52.590;7.330;2024-01-30T00:54:50;7.70;99.90
62998;DHT22;55949;52.590;7.330;2024-01-30T00:55:51;7.80;99.90
62998;DHT22;55949;52.590;7.330;2024-01-30T00:56:51;7.80;99.90
62998;DHT22;55949;52.590;7.330;2024-01-30T00:57:52;7.60;99.90
62998;DHT22;55949;52.590;7.330;2024-01-30T00:58:53;7.60;99.90
62998;DHT22;55949;52.590;7.330;2024-01-30T00:59:54;7.70;99.90
62998;DHT22;55949;52.590;7.330;2024-01-30T01:00:55;7.90;99.90
62998;DHT22;55949;52.590;7.330;2024-01-30T01:01:56;8.00;99.90
62998;DHT22;55949;52.590;7.330;2024-01-30T01:02:56;8.10;99.90
62998;DHT22;55949;52.590;7.330;2024-01-30T01:03:57;8.30;99.90
62998;DHT22;55949;52.590;7.330;2024-01-30T01:04:58;8.30;99.90
62998;DHT22;55949;52.590;7.330;2024-01-30T01:05:59;8.00;99.90
62998;DHT22;55949;52.590;7.330;2024-01-30T01:07:00;7.90;99.90
62998;DHT22;55949;52.590;7.330;2024-01-30T01:08:01;7.90;99.90
62998;DHT22;55949;52.590;7.330;2024-01-30T01:09:01;7.90;99.90
62998;DHT22;55949;52.590;7.330;2024-01-30T01:10:04;7.90;99.90
62998;DHT22;55949;52.590;7.330;2024-01-30T01:11:05;7.90;99.90
62998;DHT22;55949;52.590;7.330;2024-01-30T01:12:06;8.00;99.90
62998;DHT22;55949;52.590;7.330;2024-01-30T01:13:07;8.00;99.90
62998;DHT22;55949;52.590;7.330;2024-01-30T01:14:07;8.10;99.90
62998;DHT22;55949;52.590;7.330;2024-01-30T01:15:08;8.10;99.90
62998;DHT22;55949;52.590;7.330;2024-01-30T01:16:12;8.10;99.90
62998;DHT22;55949;52.590;7.330;2024-01-30T01:17:12;7.90;99.90
62998;DHT22;55949;52.590;7.330;2024-01-30T01:18:13;7.90;99.90
62998;DHT22;55949;52.590;7.330;2024-01-30T01:19:14;7.80;99.90
62998;DHT22;55949;52.590;7.330;2024-01-30T01:20:15;7.80;99.90
62998;DHT22;55949;52.590;7.330;2024-01-30T01:21:16;7.80;99.90
62998;DHT22;55949;52.590;7.330;2024-01-30T01:22:16;8.00;99.90
62998;DHT22;55949;52.590;7.330;2024-01-30T01:23:18;8.50;99.90
62998;DHT22;55949;52.590;7.330;2024-01-30T01:24:19;8.60;99.90
62998;DHT22;55949;52.590;7.330;2024-01-30T01:25:20;8.70;99.90
62998;DHT22;55949;52.590;7.330;2024-01-30T01:26:21;8.90;99.90
62998;DHT22;55949;52.590;7.330;2024-01-30T01:27:22;9.00;99.90
62998;DHT22;55949;52.590;7.330;2024-01-30T01:28:22;9.00;99.90
62998;DHT22;55949;52.590;7.330;2024-01-30T01:29:23;9.10;99.90
62998;DHT22;55949;52.590;7.330;2024-01-30T01:30:29;9.10;99.90
62998;DHT22;55949;52.590;7.330;2024-01-30T01:31:30;9.10;99.90
62998;DHT22;55949;52.590;7.330;2024-01-30T01:32:31;9.00;99.90
62998;DHT22;55949;52.590;7.330;2024-01-30T01:33:32;8.60;99.90
62998;DHT22;55949;52.590;7.330;2024-01-30T01:34:33;8.50;99.90
62998;DHT22;55949;52.590;7.330;2024-01-30T01:35:34;8.60;99.90
62998;DHT22;55949;52.590;7.330;2024-01-30T01:36:35;8.70;99.90
62998;DHT22;55949;52.590;7.330;2024-01-30T01:37:35;8.60;99.90
62998;DHT22;55949;52.590;7.330;2024-01-30T01:38:36;8.60;99.90
62998;DHT22;55949;52.590;7.330;2024-01-30T01:39:37;8.80;99.90
62998;DHT22;55949;52.590;7.330;2024-01-30T01:40:38;8.80;99.90
62998;DHT22;55949;52.590;7.330;2024-01-30T01:41:40;9.00;99.90
62998;DHT22;55949;52.590;7.330;2024-01-30T01:42:40;9.10;99.90
62998;DHT22;55949;52.590;7.330;2024-01-30T01:43:41;9.20;99.90
62998;DHT22;55949;52.590;7.330;2024-01-30T01:44:42;9.00;99.90
62998;DHT22;55949;52.590;7.330;2024-01-30T01:45:43;9.10;99.90
62998;DHT22;55949;52.590;7.330;2024-01-30T01:46:43;9.00;99.90
62998;DHT22;55949;52.590;7.330;2024-01-30T01:47:52;9.00;99.90
62998;DHT22;55949;52.590;7.330;2024-01-30T01:48:53;9.10;99.90
62998;DHT22;55949;52.590;7.330;2024-01-30T01:49:54;9.10;99.90
62998;DHT22;55949;52.590;7.330;2024-01-30T01:50:55;9.10;99.90
62998;DHT22;55949;52.590;7.330;2024-01-30T01:51:56;9.10;99.90
62998;DHT22;55949;52.590;7.330;2024-01-30T01:52:58;9.10;99.90
62998;DHT22;55949;52.590;7.330;2024-01-30T01:54:04;8.90;99.90
62998;DHT22;55949;52.590;7.330;2024-01-30T01:55:08;8.90;99.90
62998;DHT22;55949;52.590;7.330;2024-01-30T01:56:09;8.90;99.90
62998;DHT22;55949;52.590;7.330;2024-01-30T01:57:10;8.90;99.90
62998;DHT22;55949;52.590;7.330;2024-01-30T01:58:11;9.00;99.90
62998;DHT22;55949;52.590;7.330;2024-01-30T01:59:13;9.00;99.90
62998;DHT22;55949;52.590;7.330;2024-01-30T02:00:14;9.10;99.90
62998;DHT22;55949;52.590;7.330;2024-01-30T02:01:18;9.10;99.90
62998;DHT22;55949;52.590;7.330;2024-01-30T02:02:20;9.20;99.90
62998;DHT22;55949;52.590;7.330;2024-01-30T02:03:23;9.30;99.90
62998;DHT22;55949;52.590;7.330;2024-01-30T02:04:24;9.40;99.90
62998;DHT22;55949;52.590;7.330;2024-01-30T02:05:25;9.40;99.90
62998;DHT22;55949;52.590;7.330;2024-01-30T02:06:27;9.40;99.90
62998;DHT22;55949;52.590;7.330;2024-01-30T02:07:28;9.40;99.90
62998;DHT22;55949;52.590;7.330;2024-01-30T02:08:29;9.40;99.90
62998;DHT22;55949;52.590;7.330;2024-01-30T02:09:30;9.50;99.90
62998;DHT22;55949;52.590;7.330;2024-01-30T02:10:30;9.50;99.90
62998;DHT22;55949;52.590;7.330;2024-01-30T02:11:31;9.40;99.90
62998;DHT22;55949;52.590;7.330;2024-01-30T02:12:32;9.50;99.90
62998;DHT22;55949;52.590;7.330;2024-01-30T02:13:33;9.50;99.90
62998;DHT22;55949;52.590;7.330;2024-01-30T02:14:47;9.60;99.90
62998;DHT22;55949;52.590;7.330;2024-01-30T02:15:51;9.60;99.90
62998;DHT22;55949;52.590;7.330;2024-01-30T02:16:52;9.50;99.90
62998;DHT22;55949;52.590;7.330;2024-01-30T02:17:53;9.30;99.90
62998;DHT22;55949;52.590;7.330;2024-01-30T02:18:54;9.20;99.90
62998;DHT22;55949;52.590;7.330;2024-01-30T02:19:55;9.10;99.90
62998;DHT22;55949;52.590;7.330;2024-01-30T02:20:56;9.30;99.90
62998;DHT22;55949;52.590;7.330;2024-01-30T02:21:58;9.40;99.90
62998;DHT22;55949;52.590;7.330;2024-01-30T02:23:01;9.40;99.90
62998;DHT22;55949;52.590;7.330;2024-01-30T02:24:03;9.40;99.90
62998;DHT22;55949;52.590;7.330;2024-01-30T02:25:04;9.40;99.90
62998;DHT22;55949;52.590;7.330;2024-01-30T02:26:05;9.40;99.90
62998;DHT22;55949;52.590;7.330;2024-01-30T02:27:05;9.50;99.90
62998;DHT22;55949;52.590;7.330;2024-01-30T02:28:06;9.50;99.90
62998;DHT22;55949;52.590;7.330;2024-01-30T02:29:08;9.50;99.90
62998;DHT22;55949;52.590;7.330;2024-01-30T02:30:09;9.50;99.90
62998;DHT22;55949;52.590;7.330;2024-01-30T02:31:10;9.40;99.90
62998;DHT22;55949;52.590;7.330;2024-01-30T02:32:11;9.40;99.90
62998;DHT22;55949;52.590;7.330;2024-01-30T02:33:13;9.40;99.90
62998;DHT22;55949;52.590;7.330;2024-01-30T02:34:14;9.30;99.90
62998;DHT22;55949;52.590;7.330;2024-01-30T02:35:15;9.30;99.90
62998;DHT22;55949;52.590;7.330;2024-01-30T02:36:16;9.30;99.90
62998;DHT22;55949;52.590;7.330;2024-01-30T02:37:17;9.00;99.90
62998;DHT22;55949;52.590;7.330;2024-01-30T02:38:17;9.00;99.90
62998;DHT22;55949;52.590;7.330;2024-01-30T02:39:19;8.90;99.90
62998;DHT22;55949;52.590;7.330;2024-01-30T02:40:20;8.80;99.90
62998;DHT22;55949;52.590;7.330;2024-01-30T02:41:21;8.80;99.90
62998;DHT22;55949;52.590;7.330;2024-01-30T02:42:22;8.70;99.90
62998;DHT22;55949;52.590;7.330;2024-01-30T02:43:22;8.80;99.90
62998;DHT22;55949;52.590;7.330;2024-01-30T02:44:23;8.80;99.90
62998;DHT22;55949;52.590;7.330;2024-01-30T02:45:24;8.80;99.90
62998;DHT22;55949;52.590;7.330;2024-01-30T02:46:25;8.60;99.90
62998;DHT22;55949;52.590;7.330;2024-01-30T02:47:25;8.80;99.90
62998;DHT22;55949;52.590;7.330;2024-01-30T02:48:26;8.90;99.90
62998;DHT22;55949;52.590;7.330;2024-01-30T02:49:27;9.00;99.90
62998;DHT22;55949;52.590;7.330;2024-01-30T02:50:28;9.00;99.90
62998;DHT22;55949;52.590;7.330;2024-01-30T02:51:28;9.00;99.90
62998;DHT22;55949;52.590;7.330;2024-01-30T02:52:29;9.10;99.90
62998;DHT22;55949;52.590;7.330;2024-01-30T02:53:30;9.00;99.90
62998;DHT22;55949;52.590;7.330;2024-01-30T02:54:30;9.00;99.90
62998;DHT22;55949;52.590;7.330;2024-01-30T02:55:31;9.00;99.90
62998;DHT22;55949;52.590;7.330;2024-01-30T02:56:32;8.90;99.90
62998;DHT22;55949;52.590;7.330;2024-01-30T02:57:32;9.00;99.90
62998;DHT22;55949;52.590;7.330;2024-01-30T02:58:34;9.00;99.90
62998;DHT22;55949;52.590;7.330;2024-01-30T02:59:35;8.90;99.90
62998;DHT22;55949;52.590;7.330;2024-01-30T03:00:36;8.80;99.90
62998;DHT22;55949;52.590;7.330;2024-01-30T03:01:44;8.80;99.90
62998;DHT22;55949;52.590;7.330;2024-01-30T03:02:45;8.70;99.90
62998;DHT22;55949;52.590;7.330;2024-01-30T03:03:45;8.70;99.90
62998;DHT22;55949;52.590;7.330;2024-01-30T03:04:46;8.80;99.90
62998;DHT22;55949;52.590;7.330;2024-01-30T03:05:47;8.70;99.90
62998;DHT22;55949;52.590;7.330;2024-01-30T03:06:48;8.70;99.90
62998;DHT22;55949;52.590;7.330;2024-01-30T03:07:49;8.60;99.90
62998;DHT22;55949;52.590;7.330;2024-01-30T03:08:49;8.60;99.90
62998;DHT22;55949;52.590;7.330;2024-01-30T03:09:50;8.70;99.90
62998;DHT22;55949;52.590;7.330;2024-01-30T03:10:51;8.70;99.90
62998;DHT22;55949;52.590;7.330;2024-01-30T03:11:51;8.60;99.90
62998;DHT22;55949;52.590;7.330;2024-01-30T03:12:52;8.60;99.90
62998;DHT22;55949;52.590;7.330;2024-01-30T03:13:53;8.60;99.90
62998;DHT22;55949;52.590;7.330;2024-01-30T03:14:53;8.60;99.90
62998;DHT22;55949;52.590;7.330;2024-01-30T03:15:54;8.50;99.90
62998;DHT22;55949;52.590;7.330;2024-01-30T03:16:55;8.50;99.90
62998;DHT22;55949;52.590;7.330;2024-01-30T03:17:55;8.50;99.90
62998;DHT22;55949;52.590;7.330;2024-01-30T03:18:56;8.50;99.90
62998;DHT22;55949;52.590;7.330;2024-01-30T03:19:57;8.50;99.90
62998;DHT22;55949;52.590;7.330;2024-01-30T03:20:58;8.50;99.90
62998;DHT22;55949;52.590;7.330;2024-01-30T03:22:01;8.50;99.90
62998;DHT22;55949;52.590;7.330;2024-01-30T03:23:02;8.60;99.90
62998;DHT22;55949;52.590;7.330;2024-01-30T03:24:03;8.60;99.90
62998;DHT22;55949;52.590;7.330;2024-01-30T03:25:04;8.60;99.90
62998;DHT22;55949;52.590;7.330;2024-01-30T03:26:05;8.60;99.90
62998;DHT22;55949;52.590;7.330;2024-01-30T03:27:08;8.60;99.90
62998;DHT22;55949;52.590;7.330;2024-01-30T03:28:09;8.70;99.90
62998;DHT22;55949;52.590;7.330;2024-01-30T03:29:10;8.70;99.90
62998;DHT22;55949;52.590;7.330;2024-01-30T03:30:10;8.80;99.90
62998;DHT22;55949;52.590;7.330;2024-01-30T03:31:15;8.80;99.90
62998;DHT22;55949;52.590;7.330;2024-01-30T03:32:16;8.80;99.90
62998;DHT22;55949;52.590;7.330;2024-01-30T03:33:17;8.80;99.90
62998;DHT22;55949;52.590;7.330;2024-01-30T03:34:18;8.80;99.90
62998;DHT22;55949;52.590;7.330;2024-01-30T03:35:19;8.80;99.90
62998;DHT22;55949;52.590;7.330;2024-01-30T03:36:20;8.80;99.90
62998;DHT22;55949;52.590;7.330;2024-01-30T03:37:20;8.90;99.90
62998;DHT22;55949;52.590;7.330;2024-01-30T03:38:21;8.90;99.90
62998;DHT22;55949;52.590;7.330;2024-01-30T03:39:22;8.90;99.90
62998;DHT22;55949;52.590;7.330;2024-01-30T03:40:23;9.00;99.90
62998;DHT22;55949;52.590;7.330;2024-01-30T03:41:24;8.90;99.90
62998;DHT22;55949;52.590;7.330;2024-01-30T03:42:24;8.90;99.90
62998;DHT22;55949;52.590;7.330;2024-01-30T03:43:26;8.90;99.90
62998;DHT22;55949;52.590;7.330;2024-01-30T03:44:27;8.90;99.90
62998;DHT22;55949;52.590;7.330;2024-01-30T03:45:27;8.90;99.90
62998;DHT22;55949;52.590;7.330;2024-01-30T03:46:28;8.90;99.90
62998;DHT22;55949;52.590;7.330;2024-01-30T03:47:29;8.90;99.90
62998;DHT22;55949;52.590;7.330;2024-01-30T03:48:29;8.90;99.90
62998;DHT22;55949;52.590;7.330;2024-01-30T03:49:30;8.80;99.90
62998;DHT22;55949;52.590;7.330;2024-01-30T03:50:31;8.80;99.90
62998;DHT22;55949;52.590;7.330;2024-01-30T03:51:32;8.80;99.90
62998;DHT22;55949;52.590;7.330;2024-01-30T03:52:32;8.90;99.90
62998;DHT22;55949;52.590;7.330;2024-01-30T03:53:33;8.80;99.90
62998;DHT22;55949;52.590;7.330;2024-01-30T03:54:34;8.80;99.90
62998;DHT22;55949;52.590;7.330;2024-01-30T03:55:35;8.80;99.90
62998;DHT22;55949;52.590;7.330;2024-01-30T03:56:35;8.80;99.90
62998;DHT22;55949;52.590;7.330;2024-01-30T03:57:36;8.80;99.90
62998;DHT22;55949;52.590;7.330;2024-01-30T03:58:37;8.80;99.90
62998;DHT22;55949;52.590;7.330;2024-01-30T03:59:38;8.90;99.90
62998;DHT22;55949;52.590;7.330;2024-01-30T04:00:38;8.80;99.90
62998;DHT22;55949;52.590;7.330;2024-01-30T04:01:39;8.80;99.90
62998;DHT22;55949;52.590;7.330;2024-01-30T04:02:40;8.80;99.90
62998;DHT22;55949;52.590;7.330;2024-01-30T04:03:41;8.80;99.90
62998;DHT22;55949;52.590;7.330;2024-01-30T04:04:44;8.80;99.90
62998;DHT22;55949;52.590;7.330;2024-01-30T04:05:45;8.80;99.90
62998;DHT22;55949;52.590;7.330;2024-01-30T04:06:46;8.80;99.90
62998;DHT22;55949;52.590;7.330;2024-01-30T04:07:46;8.80;99.90
62998;DHT22;55949;52.590;7.330;2024-01-30T04:08:47;8.80;99.90
62998;DHT22;55949;52.590;7.330;2024-01-30T04:09:48;8.80;99.90
62998;DHT22;55949;52.590;7.330;2024-01-30T04:10:49;8.80;99.90
62998;DHT22;55949;52.590;7.330;2024-01-30T04:11:49;8.80;99.90
62998;DHT22;55949;52.590;7.330;2024-01-30T04:12:51;8.80;99.90
62998;DHT22;55949;52.590;7.330;2024-01-30T04:13:54;8.80;99.90
62998;DHT22;55949;52.590;7.330;2024-01-30T04:14:55;8.80;99.90
62998;DHT22;55949;52.590;7.330;2024-01-30T04:15:56;8.70;99.90
62998;DHT22;55949;52.590;7.330;2024-01-30T04:16:56;8.80;99.90
62998;DHT22;55949;52.590;7.330;2024-01-30T04:17:58;8.80;99.90
62998;DHT22;55949;52.590;7.330;2024-01-30T04:18:59;8.80;99.90
62998;DHT22;55949;52.590;7.330;2024-01-30T04:20:00;8.80;99.90
62998;DHT22;55949;52.590;7.330;2024-01-30T04:21:01;8.80;99.90
62998;DHT22;55949;52.590;7.330;2024-01-30T04:22:02;8.80;99.90
62998;DHT22;55949;52.590;7.330;2024-01-30T04:23:03;8.80;99.90
62998;DHT22;55949;52.590;7.330;2024-01-30T04:24:04;8.70;99.90
62998;DHT22;55949;52.590;7.330;2024-01-30T04:25:05;8.80;99.90
62998;DHT22;55949;52.590;7.330;2024-01-30T04:26:06;8.70;99.90
62998;DHT22;55949;52.590;7.330;2024-01-30T04:27:07;8.70;99.90
62998;DHT22;55949;52.590;7.330;2024-01-30T04:28:08;8.80;99.90
62998;DHT22;55949;52.590;7.330;2024-01-30T04:29:08;8.70;99.90
62998;DHT22;55949;52.590;7.330;2024-01-30T04:30:10;8.80;99.90
62998;DHT22;55949;52.590;7.330;2024-01-30T04:31:11;8.80;99.90
62998;DHT22;55949;52.590;7.330;2024-01-30T04:32:12;8.70;99.90
62998;DHT22;55949;52.590;7.330;2024-01-30T04:33:12;8.70;99.90
62998;DHT22;55949;52.590;7.330;2024-01-30T04:34:13;8.70;99.90
62998;DHT22;55949;52.590;7.330;2024-01-30T04:35:14;8.70;99.90
62998;DHT22;55949;52.590;7.330;2024-01-30T04:36:15;8.70;99.90
62998;DHT22;55949;52.590;7.330;2024-01-30T04:37:16;8.60;99.90
62998;DHT22;55949;52.590;7.330;2024-01-30T04:38:17;8.60;99.90
62998;DHT22;55949;52.590;7.330;2024-01-30T04:39:18;8.60;99.90
62998;DHT22;55949;52.590;7.330;2024-01-30T04:40:20;8.60;99.90
62998;DHT22;55949;52.590;7.330;2024-01-30T04:41:21;8.70;99.90
62998;DHT22;55949;52.590;7.330;2024-01-30T04:42:21;8.60;99.90
62998;DHT22;55949;52.590;7.330;2024-01-30T04:43:22;8.70;99.90
62998;DHT22;55949;52.590;7.330;2024-01-30T04:44:23;8.70;99.90
62998;DHT22;55949;52.590;7.330;2024-01-30T04:45:23;8.70;99.90
62998;DHT22;55949;52.590;7.330;2024-01-30T04:46:24;8.70;99.90
62998;DHT22;55949;52.590;7.330;2024-01-30T04:47:25;8.70;99.90
62998;DHT22;55949;52.590;7.330;2024-01-30T04:48:26;8.70;99.90
62998;DHT22;55949;52.590;7.330;2024-01-30T04:49:27;8.60;99.90
62998;DHT22;55949;52.590;7.330;2024-01-30T04:50:28;8.50;99.90
62998;DHT22;55949;52.590;7.330;2024-01-30T04:51:28;8.40;99.90
62998;DHT22;55949;52.590;7.330;2024-01-30T04:52:30;8.50;99.90
62998;DHT22;55949;52.590;7.330;2024-01-30T04:53:31;8.60;99.90
62998;DHT22;55949;52.590;7.330;2024-01-30T04:54:32;8.60;99.90
62998;DHT22;55949;52.590;7.330;2024-01-30T04:55:32;8.60;99.90
62998;DHT22;55949;52.590;7.330;2024-01-30T04:56:33;8.70;99.90
62998;DHT22;55949;52.590;7.330;2024-01-30T04:57:34;8.70;99.90
62998;DHT22;55949;52.590;7.330;2024-01-30T04:58:36;8.70;99.90
62998;DHT22;55949;52.590;7.330;2024-01-30T04:59:36;8.70;99.90
62998;DHT22;55949;52.590;7.330;2024-01-30T05:00:37;8.70;99.90
62998;DHT22;55949;52.590;7.330;2024-01-30T05:01:38;8.80;99.90
62998;DHT22;55949;52.590;7.330;2024-01-30T05:02:38;8.80;99.90
62998;DHT22;55949;52.590;7.330;2024-01-30T05:03:39;8.90;99.90
62998;DHT22;55949;52.590;7.330;2024-01-30T05:04:41;8.90;99.90
62998;DHT22;55949;52.590;7.330;2024-01-30T05:05:43;8.90;99.90
62998;DHT22;55949;52.590;7.330;2024-01-30T05:06:44;8.80;99.90
62998;DHT22;55949;52.590;7.330;2024-01-30T05:07:46;8.80;99.90
62998;DHT22;55949;52.590;7.330;2024-01-30T05:08:47;8.80;99.90
62998;DHT22;55949;52.590;7.330;2024-01-30T05:09:47;8.80;99.90
62998;DHT22;55949;52.590;7.330;2024-01-30T05:10:48;8.70;99.90
62998;DHT22;55949;52.590;7.330;2024-01-30T05:11:49;8.70;99.90
62998;DHT22;55949;52.590;7.330;2024-01-30T05:12:49;8.80;99.90
62998;DHT22;55949;52.590;7.330;2024-01-30T05:13:50;8.80;99.90
62998;DHT22;55949;52.590;7.330;2024-01-30T05:14:51;8.90;99.90
62998;DHT22;55949;52.590;7.330;2024-01-30T05:15:52;8.80;99.90
62998;DHT22;55949;52.590;7.330;2024-01-30T05:16:52;8.70;99.90
62998;DHT22;55949;52.590;7.330;2024-01-30T05:17:53;8.70;99.90
62998;DHT22;55949;52.590;7.330;2024-01-30T05:18:54;8.70;99.90
62998;DHT22;55949;52.590;7.330;2024-01-30T05:19:54;8.70;99.90
62998;DHT22;55949;52.590;7.330;2024-01-30T05:20:55;8.80;99.90
62998;DHT22;55949;52.590;7.330;2024-01-30T05:21:56;8.90;99.90
62998;DHT22;55949;52.590;7.330;2024-01-30T05:22:57;8.90;99.90
62998;DHT22;55949;52.590;7.330;2024-01-30T05:23:57;8.90;99.90
62998;DHT22;55949;52.590;7.330;2024-01-30T05:24:58;8.90;99.90
62998;DHT22;55949;52.590;7.330;2024-01-30T05:25:59;8.90;99.90
62998;DHT22;55949;52.590;7.330;2024-01-30T05:27:01;8.90;99.90
62998;DHT22;55949;52.590;7.330;2024-01-30T05:28:03;8.90;99.90
62998;DHT22;55949;52.590;7.330;2024-01-30T05:29:04;8.90;99.90
62998;DHT22;55949;52.590;7.330;2024-01-30T05:30:08;8.90;99.90
62998;DHT22;55949;52.590;7.330;2024-01-30T05:31:09;8.70;99.90
62998;DHT22;55949;52.590;7.330;2024-01-30T05:32:10;8.80;99.90
62998;DHT22;55949;52.590;7.330;2024-01-30T05:33:11;8.80;99.90
62998;DHT22;55949;52.590;7.330;2024-01-30T05:34:12;8.90;99.90
62998;DHT22;55949;52.590;7.330;2024-01-30T05:35:13;8.80;99.90
62998;DHT22;55949;52.590;7.330;2024-01-30T05:36:14;8.60;99.90
62998;DHT22;55949;52.590;7.330;2024-01-30T05:37:14;8.70;99.90
62998;DHT22;55949;52.590;7.330;2024-01-30T05:38:17;8.80;99.90
62998;DHT22;55949;52.590;7.330;2024-01-30T05:39:18;8.70;99.90
62998;DHT22;55949;52.590;7.330;2024-01-30T05:40:18;8.80;99.90
62998;DHT22;55949;52.590;7.330;2024-01-30T05:41:20;8.80;99.90
62998;DHT22;55949;52.590;7.330;2024-01-30T05:42:21;8.90;99.90
62998;DHT22;55949;52.590;7.330;2024-01-30T05:43:22;8.90;99.90
62998;DHT22;55949;52.590;7.330;2024-01-30T05:44:23;8.90;99.90
62998;DHT22;55949;52.590;7.330;2024-01-30T05:45:23;9.00;99.90
62998;DHT22;55949;52.590;7.330;2024-01-30T05:46:25;9.00;99.90
62998;DHT22;55949;52.590;7.330;2024-01-30T05:47:26;9.10;99.90
62998;DHT22;55949;52.590;7.330;2024-01-30T05:48:27;9.10;99.90
62998;DHT22;55949;52.590;7.330;2024-01-30T05:49:27;8.90;99.90
62998;DHT22;55949;52.590;7.330;2024-01-30T05:50:28;8.60;99.90
62998;DHT22;55949;52.590;7.330;2024-01-30T05:51:29;8.70;99.90
62998;DHT22;55949;52.590;7.330;2024-01-30T05:52:30;8.80;99.90
62998;DHT22;55949;52.590;7.330;2024-01-30T05:53:30;8.80;99.90
62998;DHT22;55949;52.590;7.330;2024-01-30T05:54:32;8.80;99.90
62998;DHT22;55949;52.590;7.330;2024-01-30T05:55:32;8.80;99.90
62998;DHT22;55949;52.590;7.330;2024-01-30T05:56:33;8.90;99.90
62998;DHT22;55949;52.590;7.330;2024-01-30T05:57:34;8.90;99.90
62998;DHT22;55949;52.590;7.330;2024-01-30T05:58:35;8.90;99.90
62998;DHT22;55949;52.590;7.330;2024-01-30T05:59:36;8.90;99.90
62998;DHT22;55949;52.590;7.330;2024-01-30T06:00:36;8.60;99.90
62998;DHT22;55949;52.590;7.330;2024-01-30T06:01:37;8.70;99.90
62998;DHT22;55949;52.590;7.330;2024-01-30T06:02:38;8.80;99.90
62998;DHT22;55949;52.590;7.330;2024-01-30T06:03:39;8.90;99.90
62998;DHT22;55949;52.590;7.330;2024-01-30T06:04:39;8.90;99.90
62998;DHT22;55949;52.590;7.330;2024-01-30T06:05:40;8.90;99.90
62998;DHT22;55949;52.590;7.330;2024-01-30T06:06:41;9.00;99.90
62998;DHT22;55949;52.590;7.330;2024-01-30T06:07:42;9.00;99.90
62998;DHT22;55949;52.590;7.330;2024-01-30T06:08:43;9.00;99.90
62998;DHT22;55949;52.590;7.330;2024-01-30T06:09:43;9.00;99.90
62998;DHT22;55949;52.590;7.330;2024-01-30T06:10:44;9.00;99.90
62998;DHT22;55949;52.590;7.330;2024-01-30T06:11:45;9.00;99.90
62998;DHT22;55949;52.590;7.330;2024-01-30T06:12:46;9.00;99.90
62998;DHT22;55949;52.590;7.330;2024-01-30T06:13:46;9.00;99.90
62998;DHT22;55949;52.590;7.330;2024-01-30T06:14:47;9.10;99.90
62998;DHT22;55949;52.590;7.330;2024-01-30T06:15:48;9.10;99.90
62998;DHT22;55949;52.590;7.330;2024-01-30T06:16:49;8.80;99.90
62998;DHT22;55949;52.590;7.330;2024-01-30T06:17:50;8.80;99.90
62998;DHT22;55949;52.590;7.330;2024-01-30T06:18:50;8.90;99.90
62998;DHT22;55949;52.590;7.330;2024-01-30T06:19:51;9.00;99.90
62998;DHT22;55949;52.590;7.330;2024-01-30T06:20:52;9.00;99.90
62998;DHT22;55949;52.590;7.330;2024-01-30T06:21:52;9.10;99.90
62998;DHT22;55949;52.590;7.330;2024-01-30T06:22:54;9.10;99.90
62998;DHT22;55949;52.590;7.330;2024-01-30T06:23:54;9.10;99.90
62998;DHT22;55949;52.590;7.330;2024-01-30T06:24:55;9.10;99.90
62998;DHT22;55949;52.590;7.330;2024-01-30T06:25:56;9.10;99.90
62998;DHT22;55949;52.590;7.330;2024-01-30T06:26:57;9.10;99.90
62998;DHT22;55949;52.590;7.330;2024-01-30T06:27:58;9.10;99.90
62998;DHT22;55949;52.590;7.330;2024-01-30T06:28:58;9.10;99.90
62998;DHT22;55949;52.590;7.330;2024-01-30T06:29:59;9.10;99.90
62998;DHT22;55949;52.590;7.330;2024-01-30T06:31:01;9.10;99.90
62998;DHT22;55949;52.590;7.330;2024-01-30T06:32:02;9.10;99.90